Time;durP1;ratioP1;P1;durP2;ratioP2;P2;SDS_P1;SDS_P2;PMS_P1;PMS_P2;Temp;Humidity;BMP_temperature;BMP_pressure;BME280_temperature;BME280_humidity;BME280_pressure;Samples;Min_cycle;Max_cycle;Signal;HPM_P1;HPM_P2
2022/07/22 00:00:06;;;;;;;4.55;3.65;;;;;;;;;;4751901;30;20060;-57
2022/07/22 00:02:34;;;;;;;4.60;3.47;;;;;;;;;;4752028;30;20048;-57
2022/07/22 00:05:03;;;;;;;4.50;3.10;;;;;;;;;;4751398;30;20101;-57
2022/07/22 00:07:31;;;;;;;4.78;3.47;;;;;;;;;;4751740;30;20131;-57
2022/07/22 00:09:59;;;;;;;6.82;3.35;;;;;;;;;;4751661;30;20082;-58
2022/07/22 00:12:28;;;;;;;7.50;3.30;;;;;;;;;;4751658;30;20172;-57
2022/07/22 00:14:56;;;;;;;5.65;3.00;;;;;;;;;;4751645;30;20106;-57
2022/07/22 00:17:24;;;;;;;5.82;3.22;;;;;;;;;;4751594;30;20048;-57
2022/07/22 00:19:52;;;;;;;7.45;3.47;;;;;;;;;;4751682;30;20048;-57
2022/07/22 00:22:20;;;;;;;6.68;3.58;;;;;;;;;;4751481;30;20048;-57
2022/07/22 00:24:49;;;;;;;4.53;3.15;;;;;;;;;;4735725;30;20417;-57
2022/07/22 00:27:18;;;;;;;7.60;3.35;;;;;;;;;;4751334;30;20126;-56
2022/07/22 00:29:47;;;;;;;6.00;3.85;;;;;;;;;;4751425;30;20075;-55
2022/07/22 00:32:16;;;;;;;9.43;3.15;;;;;;;;;;4735686;30;20170;-58
2022/07/22 00:34:43;;;;;;;3.67;2.63;;;;;;;;;;4751594;30;20058;-57
2022/07/22 00:37:11;;;;;;;3.85;2.75;;;;;;;;;;4735906;30;20480;-58
2022/07/22 00:39:40;;;;;;;5.45;4.30;;;;;;;;;;4751406;30;20124;-58
2022/07/22 00:42:08;;;;;;;7.38;4.22;;;;;;;;;;4751286;30;20052;-57
2022/07/22 00:44:36;;;;;;;5.03;3.92;;;;;;;;;;4751526;30;20044;-58
2022/07/22 00:47:07;;;;;;;4.72;3.50;;;;;;;;;;4735820;30;20056;-56
2022/07/22 00:49:35;;;;;;;3.38;2.75;;;;;;;;;;4751499;30;20561;-57
2022/07/22 00:52:05;;;;;;;6.10;4.15;;;;;;;;;;4735832;30;20045;-58
2022/07/22 00:54:36;;;;;;;4.85;2.88;;;;;;;;;;4735504;30;20053;-58
2022/07/22 00:57:05;;;;;;;4.40;3.17;;;;;;;;;;4721558;30;20041;-58
2022/07/22 00:59:33;;;;;;;4.15;3.08;;;;;;;;;;4735300;30;20063;-57
2022/07/22 01:02:01;;;;;;;4.85;3.17;;;;;;;;;;4751060;30;20119;-57
2022/07/22 01:04:29;;;;;;;4.60;3.22;;;;;;;;;;4751301;30;20462;-56
2022/07/22 01:06:58;;;;;;;5.72;3.90;;;;;;;;;;4750904;30;20063;-56
2022/07/22 01:09:25;;;;;;;5.80;3.65;;;;;;;;;;4735279;30;20048;-58
2022/07/22 01:11:53;;;;;;;4.07;3.08;;;;;;;;;;4750970;30;20056;-58
2022/07/22 01:14:20;;;;;;;5.28;4.20;;;;;;;;;;4750813;30;20044;-55
2022/07/22 01:16:49;;;;;;;7.03;4.88;;;;;;;;;;4751103;30;20060;-58
2022/07/22 01:19:17;;;;;;;6.80;3.83;;;;;;;;;;4750846;30;20048;-55
2022/07/22 01:21:48;;;;;;;5.07;3.13;;;;;;;;;;4749960;30;20515;-57
2022/07/22 01:24:17;;;;;;;4.45;3.03;;;;;;;;;;4750785;30;20049;-55
2022/07/22 01:26:45;;;;;;;4.32;2.65;;;;;;;;;;4735457;30;20144;-56
2022/07/22 01:29:14;;;;;;;14.68;4.30;;;;;;;;;;4751066;30;20056;-56
2022/07/22 01:31:42;;;;;;;4.47;3.40;;;;;;;;;;4750933;30;20517;-57
2022/07/22 01:34:11;;;;;;;3.92;3.15;;;;;;;;;;4751091;30;20055;-52
2022/07/22 01:36:39;;;;;;;9.05;4.65;;;;;;;;;;4738396;30;20052;-56
2022/07/22 01:39:10;;;;;;;3.92;3.13;;;;;;;;;;4724211;30;20143;-57
2022/07/22 01:41:42;;;;;;;5.75;3.22;;;;;;;;;;4754121;30;20086;-56
2022/07/22 01:44:12;;;;;;;4.40;3.58;;;;;;;;;;4738509;30;20421;-56
2022/07/22 01:46:40;;;;;;;5.85;3.17;;;;;;;;;;4738566;30;20048;-56
2022/07/22 01:49:09;;;;;;;5.07;3.17;;;;;;;;;;4737928;30;20074;-57
2022/07/22 01:51:39;;;;;;;6.38;2.95;;;;;;;;;;4754128;30;20152;-56
2022/07/22 01:54:07;;;;;;;4.78;3.75;;;;;;;;;;4738144;30;20172;-57
2022/07/22 01:56:37;;;;;;;4.53;3.47;;;;;;;;;;4753825;30;20064;-58
2022/07/22 01:59:07;;;;;;;5.03;4.00;;;;;;;;;;4753590;30;20128;-56
2022/07/22 02:01:35;;;;;;;5.05;2.75;;;;;;;;;;4753815;30;20052;-58
2022/07/22 02:04:03;;;;;;;8.68;4.55;;;;;;;;;;4753564;30;20498;-55
2022/07/22 02:06:31;;;;;;;5.70;3.75;;;;;;;;;;4753842;30;20127;-58
2022/07/22 02:09:00;;;;;;;5.30;3.00;;;;;;;;;;4737997;30;20444;-58
2022/07/22 02:11:36;;;;;;;7.03;3.42;;;;;;;;;;4737803;30;20087;-57
2022/07/22 02:14:04;;;;;;;4.30;3.53;;;;;;;;;;4723234;30;20099;-58
2022/07/22 02:16:33;;;;;;;4.90;3.70;;;;;;;;;;4737666;30;20091;-57
2022/07/22 02:19:00;;;;;;;4.15;3.63;;;;;;;;;;4737632;30;20414;-58
2022/07/22 02:21:28;;;;;;;3.67;3.28;;;;;;;;;;4737725;30;20080;-58
2022/07/22 02:24:00;;;;;;;4.80;3.00;;;;;;;;;;4725095;30;20778;-55
2022/07/22 02:26:29;;;;;;;5.68;3.50;;;;;;;;;;4753721;30;20055;-58
2022/07/22 02:28:56;;;;;;;6.35;3.42;;;;;;;;;;4753297;30;20048;-56
2022/07/22 02:31:25;;;;;;;4.25;3.55;;;;;;;;;;4737672;30;20106;-57
2022/07/22 02:33:53;;;;;;;285.92;192.32;;;;;;;;;;4737747;30;20048;-58
2022/07/22 02:36:26;;;;;;;42.95;28.17;;;;;;;;;;4737328;30;20055;-55
2022/07/22 02:38:54;;;;;;;8.60;5.82;;;;;;;;;;4752944;30;20063;-54
2022/07/22 02:41:22;;;;;;;7.18;3.97;;;;;;;;;;4737231;30;20448;-55
2022/07/22 02:43:55;;;;;;;4.80;3.73;;;;;;;;;;4753355;30;20106;-53
2022/07/22 02:46:24;;;;;;;4.00;2.92;;;;;;;;;;4752945;30;20056;-54
2022/07/22 02:48:52;;;;;;;14.25;8.45;;;;;;;;;;4753335;30;20046;-59
2022/07/22 02:51:22;;;;;;;5.30;3.60;;;;;;;;;;4752930;30;20498;-52
2022/07/22 02:53:51;;;;;;;4.30;3.38;;;;;;;;;;4752713;30;20060;-57
2022/07/22 02:56:21;;;;;;;3.28;2.72;;;;;;;;;;4752965;30;20544;-54
2022/07/22 02:58:52;;;;;;;4.38;3.67;;;;;;;;;;4752541;30;20067;-54
2022/07/22 03:01:21;;;;;;;4.70;3.60;;;;;;;;;;4752848;30;20059;-53
2022/07/22 03:03:56;;;;;;;5.63;3.38;;;;;;;;;;4752769;30;20417;-58
2022/07/22 03:06:26;;;;;;;47.72;28.75;;;;;;;;;;4736705;30;20048;-55
2022/07/22 03:08:58;;;;;;;19.35;13.00;;;;;;;;;;4736879;30;20052;-58
2022/07/22 03:11:28;;;;;;;6.50;4.13;;;;;;;;;;4736841;30;20052;-58
2022/07/22 03:13:56;;;;;;;4.72;3.50;;;;;;;;;;4752771;30;20062;-54
2022/07/22 03:16:23;;;;;;;4.97;3.20;;;;;;;;;;4736679;30;20594;-54
2022/07/22 03:18:51;;;;;;;4.72;3.22;;;;;;;;;;4752431;30;20135;-51
2022/07/22 03:21:19;;;;;;;5.05;3.30;;;;;;;;;;4736434;30;20056;-53
2022/07/22 03:23:53;;;;;;;7.85;3.47;;;;;;;;;;4736677;30;20052;-54
2022/07/22 03:26:24;;;;;;;13.18;9.20;;;;;;;;;;4742260;30;20067;-53
2022/07/22 03:28:51;;;;;;;22.48;14.63;;;;;;;;;;4734732;30;20536;-54
2022/07/22 03:31:19;;;;;;;12.10;8.07;;;;;;;;;;4748641;30;20044;-54
2022/07/22 03:33:49;;;;;;;8.68;5.25;;;;;;;;;;4736287;30;20048;-58
2022/07/22 03:36:18;;;;;;;9.55;4.07;;;;;;;;;;4736311;30;20048;-54
2022/07/22 03:38:49;;;;;;;7.13;4.75;;;;;;;;;;4736136;30;20052;-55
2022/07/22 03:41:16;;;;;;;5.55;4.32;;;;;;;;;;4736492;30;20075;-53
2022/07/22 03:43:44;;;;;;;4.28;3.83;;;;;;;;;;4721920;30;20048;-55
2022/07/22 03:46:14;;;;;;;4.03;3.50;;;;;;;;;;4752312;30;20133;-56
2022/07/22 03:48:41;;;;;;;4.25;3.67;;;;;;;;;;4751912;30;20413;-55
2022/07/22 03:51:08;;;;;;;4.13;3.63;;;;;;;;;;4736049;30;20409;-58
2022/07/22 03:53:36;;;;;;;4.50;3.65;;;;;;;;;;4736153;30;20478;-52
2022/07/22 03:56:04;;;;;;;13.82;10.57;;;;;;;;;;4735892;30;20052;-52
2022/07/22 03:58:31;;;;;;;15.10;10.13;;;;;;;;;;4735058;30;20072;-58
2022/07/22 04:00:59;;;;;;;5.38;4.50;;;;;;;;;;4735996;30;20052;-58
2022/07/22 04:03:27;;;;;;;5.00;3.90;;;;;;;;;;4735938;30;20405;-55
2022/07/22 04:06:10;;;;;;;;;;;;;;;;;;4752213;30;20059;-58
2022/07/22 04:08:46;;;;;;;5.55;3.47;;;;;;;;;;4751790;30;20350;-54
2022/07/22 04:11:13;;;;;;;3.70;3.30;;;;;;;;;;4752000;30;20048;-58
2022/07/22 04:13:40;;;;;;;4.75;3.65;;;;;;;;;;4735655;30;20529;-54
2022/07/22 04:16:07;;;;;;;4.38;3.97;;;;;;;;;;4735924;30;20048;-54
2022/07/22 04:18:37;;;;;;;3.70;2.97;;;;;;;;;;4735676;30;20051;-55
2022/07/22 04:21:07;;;;;;;6.78;3.38;;;;;;;;;;4735689;30;20429;-55
2022/07/22 04:23:57;;;;;;;5.10;3.13;;;;;;;;;;4751053;30;20147;-55
2022/07/22 04:26:30;;;;;;;5.43;3.33;;;;;;;;;;4735727;30;20048;-58
2022/07/22 04:28:58;;;;;;;56.15;42.45;;;;;;;;;;4735547;30;20052;-52
2022/07/22 04:31:28;;;;;;;16.45;12.45;;;;;;;;;;4751402;30;20497;-54
2022/07/22 04:34:01;;;;;;;5.30;4.03;;;;;;;;;;4735484;30;20562;-58
2022/07/22 04:36:28;;;;;;;4.40;3.88;;;;;;;;;;4735504;30;20103;-58
2022/07/22 04:38:56;;;;;;;6.78;3.47;;;;;;;;;;4735514;30;20048;-55
2022/07/22 04:41:24;;;;;;;4.93;3.60;;;;;;;;;;4735703;30;20048;-58
2022/07/22 04:43:52;;;;;;;3.50;2.97;;;;;;;;;;4735347;30;20040;-58
2022/07/22 04:46:22;;;;;;;4.85;3.28;;;;;;;;;;4735204;30;20052;-55
2022/07/22 04:48:50;;;;;;;5.43;3.50;;;;;;;;;;4735312;30;20076;-53
2022/07/22 04:51:18;;;;;;;6.25;3.20;;;;;;;;;;4735635;30;20123;-53
2022/07/22 04:53:48;;;;;;;5.15;3.35;;;;;;;;;;4735578;30;20048;-54
2022/07/22 04:56:19;;;;;;;5.63;3.50;;;;;;;;;;4735521;30;20139;-53
2022/07/22 04:58:51;;;;;;;7.13;3.53;;;;;;;;;;4750980;30;20048;-58
2022/07/22 05:01:21;;;;;;;5.53;3.17;;;;;;;;;;4751254;30;20460;-55
2022/07/22 05:03:51;;;;;;;4.88;3.35;;;;;;;;;;4735270;30;20528;-53
2022/07/22 05:06:19;;;;;;;4.68;3.38;;;;;;;;;;4735247;30;20052;-55
2022/07/22 05:08:46;;;;;;;3.72;3.03;;;;;;;;;;4736643;30;20094;-55
2022/07/22 05:11:14;;;;;;;4.63;3.00;;;;;;;;;;4739063;30;20140;-54
2022/07/22 05:13:41;;;;;;;6.05;3.10;;;;;;;;;;4738648;30;20060;-54
2022/07/22 05:16:10;;;;;;;4.95;3.80;;;;;;;;;;4738522;30;20056;-54
2022/07/22 05:18:40;;;;;;;5.60;3.35;;;;;;;;;;4738649;30;20052;-55
2022/07/22 05:21:10;;;;;;;5.70;3.38;;;;;;;;;;4738468;30;20052;-53
2022/07/22 05:23:38;;;;;;;4.82;3.65;;;;;;;;;;4738659;30;20053;-58
2022/07/22 05:26:06;;;;;;;7.85;3.40;;;;;;;;;;4738390;30;20083;-55
2022/07/22 05:28:33;;;;;;;7.93;3.83;;;;;;;;;;4754549;30;20056;-58
2022/07/22 05:31:01;;;;;;;4.90;3.60;;;;;;;;;;4754076;30;20051;-51
2022/07/22 05:33:31;;;;;;;6.93;4.60;;;;;;;;;;4753275;30;20147;-55
2022/07/22 05:36:09;;;;;;;5.68;3.55;;;;;;;;;;4753041;30;20052;-57
2022/07/22 05:38:42;;;;;;;4.57;3.92;;;;;;;;;;4753019;30;20067;-55
2022/07/22 05:41:09;;;;;;;4.25;3.20;;;;;;;;;;4754211;30;20085;-58
2022/07/22 05:43:38;;;;;;;8.10;3.53;;;;;;;;;;4754392;30;20419;-55
2022/07/22 05:46:07;;;;;;;5.13;3.47;;;;;;;;;;4754017;30;20106;-52
2022/07/22 05:48:34;;;;;;;5.55;3.92;;;;;;;;;;4754119;30;20410;-57
2022/07/22 05:51:02;;;;;;;6.47;4.05;;;;;;;;;;4752711;30;20452;-55
2022/07/22 05:53:31;;;;;;;5.28;4.07;;;;;;;;;;4753073;30;20052;-56
2022/07/22 05:56:01;;;;;;;4.70;3.75;;;;;;;;;;4752839;30;20589;-55
2022/07/22 05:58:35;;;;;;;8.02;4.07;;;;;;;;;;4754476;30;20114;-58
2022/07/22 06:01:02;;;;;;;5.93;3.75;;;;;;;;;;4755555;30;20055;-58
2022/07/22 06:03:31;;;;;;;4.88;3.20;;;;;;;;;;4755367;30;20076;-55
2022/07/22 06:06:01;;;;;;;5.45;3.83;;;;;;;;;;4755637;30;20554;-58
2022/07/22 06:08:29;;;;;;;13.88;3.70;;;;;;;;;;4771321;30;20139;-52
2022/07/22 06:10:58;;;;;;;5.28;3.33;;;;;;;;;;4755459;30;20044;-53
2022/07/22 06:13:25;;;;;;;5.82;3.90;;;;;;;;;;4755601;30;20052;-54
2022/07/22 06:15:53;;;;;;;4.72;3.80;;;;;;;;;;4755349;30;20040;-57
2022/07/22 06:18:20;;;;;;;5.38;3.50;;;;;;;;;;4755606;30;20051;-58
2022/07/22 06:20:47;;;;;;;6.18;4.10;;;;;;;;;;4770618;30;20094;-54
2022/07/22 06:23:15;;;;;;;6.07;3.97;;;;;;;;;;4755589;30;20067;-58
2022/07/22 06:25:44;;;;;;;6.40;4.15;;;;;;;;;;4771341;30;20044;-58
2022/07/22 06:28:24;;;;;;;4.65;3.60;;;;;;;;;;4755032;30;20481;-55
2022/07/22 06:30:51;;;;;;;6.60;4.18;;;;;;;;;;4760304;30;20047;-58
2022/07/22 06:33:20;;;;;;;6.05;4.25;;;;;;;;;;4737368;30;20048;-55
2022/07/22 06:35:48;;;;;;;6.38;4.13;;;;;;;;;;4737532;30;20052;-53
2022/07/22 06:38:15;;;;;;;6.00;4.25;;;;;;;;;;4737697;30;20048;-57
2022/07/22 06:41:18;;;;;;;16.23;13.70;;;;;;;;;;4753368;30;20201;-54
2022/07/22 06:43:55;;;;;;;5.55;3.97;;;;;;;;;;4753343;30;20059;-54
2022/07/22 06:46:41;;;;;;;7.05;3.80;;;;;;;;;;4753060;30;20058;-58
2022/07/22 06:49:09;;;;;;;5.00;3.92;;;;;;;;;;4737007;30;20056;-54
2022/07/22 06:51:40;;;;;;;5.10;4.00;;;;;;;;;;4737105;30;20056;-55
2022/07/22 06:54:10;;;;;;;7.38;4.38;;;;;;;;;;4753064;30;20083;-54
2022/07/22 06:56:37;;;;;;;31.08;24.08;;;;;;;;;;4752970;30;20052;-53
2022/07/22 06:59:07;;;;;;;8.00;5.72;;;;;;;;;;4736874;30;20053;-53
2022/07/22 07:01:36;;;;;;;6.35;4.65;;;;;;;;;;4736818;30;20063;-51
2022/07/22 07:04:04;;;;;;;5.85;4.40;;;;;;;;;;4736883;30;20076;-58
2022/07/22 07:06:32;;;;;;;4.68;3.83;;;;;;;;;;4736871;30;20049;-56
2022/07/22 07:09:15;;;;;;;7.93;4.60;;;;;;;;;;4737117;30;20527;-58
2022/07/22 07:11:57;;;;;;;5.30;3.80;;;;;;;;;;4752542;30;20145;-53
2022/07/22 07:14:58;;;;;;;6.82;3.83;;;;;;;;;;4751982;30;20067;-57
2022/07/22 07:17:46;;;;;;;5.78;4.32;;;;;;;;;;4736943;30;20547;-53
2022/07/22 07:20:15;;;;;;;6.07;4.25;;;;;;;;;;4753028;30;20103;-57
2022/07/22 07:22:43;;;;;;;4.50;3.88;;;;;;;;;;4752442;30;20044;-56
2022/07/22 07:25:10;;;;;;;77.63;60.53;;;;;;;;;;4736645;30;20101;-55
2022/07/22 07:27:48;;;;;;;10.48;7.32;;;;;;;;;;4736585;30;20509;-54
2022/07/22 07:30:19;;;;;;;6.05;3.80;;;;;;;;;;4736414;30;20040;-53
2022/07/22 07:32:46;;;;;;;6.22;4.05;;;;;;;;;;4735710;30;20048;-53
2022/07/22 07:35:14;;;;;;;5.03;4.00;;;;;;;;;;4752627;30;20052;-58
2022/07/22 07:37:42;;;;;;;5.47;4.03;;;;;;;;;;4736471;30;20083;-55
2022/07/22 07:40:10;;;;;;;5.43;4.18;;;;;;;;;;4736436;30;20058;-53
2022/07/22 07:42:38;;;;;;;5.70;3.90;;;;;;;;;;4736241;30;20052;-56
2022/07/22 07:45:15;;;;;;;13.85;9.48;;;;;;;;;;4736760;30;20051;-56
2022/07/22 07:47:47;;;;;;;5.68;4.63;;;;;;;;;;4736113;30;20464;-53
2022/07/22 07:50:15;;;;;;;4.70;3.90;;;;;;;;;;4736720;30;20056;-58
2022/07/22 07:52:51;;;;;;;5.10;3.73;;;;;;;;;;5191626;27;20463;-53
2022/07/22 07:55:22;;;;;;;7.43;3.90;;;;;;;;;;5152653;27;20452;-50
2022/07/22 07:57:50;;;;;;;6.38;3.53;;;;;;;;;;5171661;27;20121;-53
2022/07/22 08:00:28;;;;;;;87.40;65.22;;;;;;;;;;5171603;27;20085;-57
2022/07/22 08:02:56;;;;;;;7.25;5.63;;;;;;;;;;5171593;27;20076;-53
2022/07/22 08:05:28;;;;;;;6.32;3.65;;;;;;;;;;5152954;27;20043;-52
2022/07/22 08:07:58;;;;;;;6.32;3.70;;;;;;;;;;5152844;27;20039;-53
2022/07/22 08:10:26;;;;;;;5.53;3.28;;;;;;;;;;5152877;27;20053;-55
2022/07/22 08:13:33;;;;;;;4.25;3.08;;;;;;;;;;5171425;27;20176;-57
2022/07/22 08:16:02;;;;;;;4.93;3.42;;;;;;;;;;5171315;27;20038;-58
2022/07/22 08:18:31;;;;;;;12.60;8.35;;;;;;;;;;5152608;27;20171;-54
2022/07/22 08:20:59;;;;;;;4.82;3.00;;;;;;;;;;5138983;27;20077;-55
2022/07/22 08:23:41;;;;;;;;;;;;;;;;;;5111773;28;20120;-57
2022/07/22 08:26:11;;;;;;;3.45;2.78;;;;;;;;;;5111303;28;19923;-54
2022/07/22 08:28:38;;;;;;;7.68;3.28;;;;;;;;;;5111200;28;20047;-58
2022/07/22 08:31:05;;;;;;;4.70;3.03;;;;;;;;;;5107617;28;20039;-49
2022/07/22 08:33:33;;;;;;;8.38;5.20;;;;;;;;;;5109065;28;20036;-52
2022/07/22 08:36:02;;;;;;;4.80;3.00;;;;;;;;;;5090797;28;20035;-53
2022/07/22 08:38:31;;;;;;;4.53;3.45;;;;;;;;;;5108976;28;20028;-52
2022/07/22 08:41:00;;;;;;;8.00;3.42;;;;;;;;;;5090695;28;20055;-51
2022/07/22 08:43:35;;;;;;;6.93;3.28;;;;;;;;;;5108921;28;20127;-58
2022/07/22 08:46:04;;;;;;;5.00;3.55;;;;;;;;;;5090210;28;20083;-58
2022/07/22 08:48:47;;;;;;;6.90;3.47;;;;;;;;;;5090575;28;20048;-51
2022/07/22 08:51:35;;;;;;;5.07;3.33;;;;;;;;;;5107656;28;20047;-53
2022/07/22 08:54:21;;;;;;;13.60;10.35;;;;;;;;;;5090429;28;20042;-57
2022/07/22 08:56:50;;;;;;;4.90;3.60;;;;;;;;;;5090492;28;20036;-57
2022/07/22 08:59:19;;;;;;;4.88;3.45;;;;;;;;;;5090485;28;20042;-52
2022/07/22 09:02:07;;;;;;;5.80;3.60;;;;;;;;;;5108733;28;20036;-54
2022/07/22 09:04:54;;;;;;;4.78;3.58;;;;;;;;;;5094475;28;20051;-52
2022/07/22 09:07:31;;;;;;;5.95;3.13;;;;;;;;;;5076700;28;20499;-55
2022/07/22 09:10:10;;;;;;;5.38;3.55;;;;;;;;;;5076681;28;20036;-57
2022/07/22 09:13:01;;;;;;;5.32;3.95;;;;;;;;;;5094533;28;20063;-53
2022/07/22 09:15:53;;;;;;;9.63;3.80;;;;;;;;;;5076892;28;20074;-51
2022/07/22 09:18:56;;;;;;;6.32;4.05;;;;;;;;;;5091564;28;20281;-57
2022/07/22 09:21:35;;;;;;;5.38;3.33;;;;;;;;;;5094637;28;20048;-53
2022/07/22 09:24:32;;;;;;;7.88;4.15;;;;;;;;;;5062639;28;20044;-50
2022/07/22 09:27:27;;;;;;;9.65;6.63;;;;;;;;;;5089285;28;20048;-51
2022/07/22 09:30:33;;;;;;;6.60;4.00;;;;;;;;;;5001993;28;20037;-56
2022/07/22 09:33:07;;;;;;;6.18;4.30;;;;;;;;;;5064104;28;20044;-48
2022/07/22 09:35:42;;;;;;;4.90;4.00;;;;;;;;;;5076242;28;20044;-56
2022/07/22 09:38:27;;;;;;;7.60;3.70;;;;;;;;;;5076182;28;20052;-57
2022/07/22 09:40:55;;;;;;;6.68;4.93;;;;;;;;;;5075881;28;20398;-48
2022/07/22 09:43:23;;;;;;;7.50;4.13;;;;;;;;;;5094019;28;20089;-52
2022/07/22 09:45:58;;;;;;;7.15;4.25;;;;;;;;;;5094264;28;20040;-49
2022/07/22 09:48:49;;;;;;;8.15;3.95;;;;;;;;;;5083739;28;20048;-51
2022/07/22 09:51:34;;;;;;;8.75;3.88;;;;;;;;;;5093979;28;20048;-56
2022/07/22 09:54:22;;;;;;;5.63;3.97;;;;;;;;;;5082604;28;20388;-51
2022/07/22 09:56:50;;;;;;;5.90;3.78;;;;;;;;;;5075670;28;20126;-49
2022/07/22 09:59:19;;;;;;;4.57;3.92;;;;;;;;;;5075793;28;20040;-57
2022/07/22 10:01:58;;;;;;;16.80;14.68;;;;;;;;;;5075542;28;20044;-49
2022/07/22 10:04:33;;;;;;;13.13;11.20;;;;;;;;;;5075521;28;20131;-57
2022/07/22 10:07:02;;;;;;;4.13;3.42;;;;;;;;;;5075139;28;20376;-49
2022/07/22 10:09:36;;;;;;;7.03;3.83;;;;;;;;;;5075376;28;20036;-51
2022/07/22 10:12:06;;;;;;;8.50;3.97;;;;;;;;;;5074311;28;20620;-51
2022/07/22 10:14:34;;;;;;;5.35;3.83;;;;;;;;;;5072410;28;20047;-50
2022/07/22 10:17:02;;;;;;;4.93;4.10;;;;;;;;;;5073218;28;20078;-52
2022/07/22 10:19:35;;;;;;;6.80;4.38;;;;;;;;;;5073282;28;20069;-49
2022/07/22 10:22:02;;;;;;;4.68;3.90;;;;;;;;;;5091078;28;20039;-52
2022/07/22 10:24:29;;;;;;;5.55;4.65;;;;;;;;;;5073235;28;20059;-49
2022/07/22 10:27:01;;;;;;;8.07;4.60;;;;;;;;;;5073517;28;20040;-56
2022/07/22 10:29:38;;;;;;;6.85;4.80;;;;;;;;;;5093999;28;20099;-49
2022/07/22 10:32:18;;;;;;;5.93;4.85;;;;;;;;;;5113304;28;20044;-53
2022/07/22 10:34:58;;;;;;;7.32;4.95;;;;;;;;;;5113803;28;20070;-56
2022/07/22 10:37:34;;;;;;;6.35;5.05;;;;;;;;;;5113491;28;20509;-51
2022/07/22 10:40:19;;;;;;;5.82;4.50;;;;;;;;;;5113360;28;20036;-51
2022/07/22 10:43:06;;;;;;;6.35;5.22;;;;;;;;;;5113484;28;20086;-54
2022/07/22 10:45:35;;;;;;;8.60;4.90;;;;;;;;;;5113010;28;20054;-48
2022/07/22 10:48:09;;;;;;;6.75;5.40;;;;;;;;;;5113277;28;20040;-51
2022/07/22 10:50:42;;;;;;;6.15;5.25;;;;;;;;;;5113040;28;20032;-51
2022/07/22 10:53:25;;;;;;;6.32;4.70;;;;;;;;;;5112821;28;20499;-56
2022/07/22 10:56:05;;;;;;;8.85;4.95;;;;;;;;;;5113107;28;20046;-56
2022/07/22 10:58:33;;;;;;;6.45;4.93;;;;;;;;;;5112950;28;20035;-54
2022/07/22 11:01:04;;;;;;;5.78;4.47;;;;;;;;;;5112956;28;20038;-56
2022/07/22 11:03:33;;;;;;;6.18;4.63;;;;;;;;;;5092394;28;20043;-50
2022/07/22 11:06:21;;;;;;;6.88;4.88;;;;;;;;;;5092587;28;20036;-57
2022/07/22 11:08:53;;;;;;;6.18;4.82;;;;;;;;;;5092316;28;20106;-51
2022/07/22 11:11:46;;;;;;;6.63;4.88;;;;;;;;;;5092478;28;20032;-56
2022/07/22 11:14:15;;;;;;;6.75;5.28;;;;;;;;;;5092617;28;20048;-52
2022/07/22 11:16:44;;;;;;;6.97;5.00;;;;;;;;;;5092051;28;20050;-52
2022/07/22 11:19:11;;;;;;;8.23;5.35;;;;;;;;;;5092503;28;20046;-54
2022/07/22 11:21:39;;;;;;;8.27;5.60;;;;;;;;;;5092291;28;20513;-50
2022/07/22 11:24:11;;;;;;;6.78;5.80;;;;;;;;;;5092259;28;20040;-55
2022/07/22 11:26:41;;;;;;;7.57;5.60;;;;;;;;;;5091924;28;20051;-51
2022/07/22 11:29:33;;;;;;;7.18;5.28;;;;;;;;;;5092200;28;20089;-57
2022/07/22 11:32:03;;;;;;;8.93;5.88;;;;;;;;;;5112528;28;20093;-57
2022/07/22 11:34:30;;;;;;;8.50;5.18;;;;;;;;;;5112480;28;20036;-57
2022/07/22 11:36:57;;;;;;;8.20;5.88;;;;;;;;;;5112238;28;20039;-50
2022/07/22 11:39:28;;;;;;;8.07;5.85;;;;;;;;;;5112289;28;20089;-48
2022/07/22 11:41:59;;;;;;;6.50;5.80;;;;;;;;;;5094237;28;20035;-53
2022/07/22 11:44:30;;;;;;;6.22;5.40;;;;;;;;;;5112476;28;20038;-53
2022/07/22 11:46:58;;;;;;;8.63;5.53;;;;;;;;;;5112705;28;20092;-52
2022/07/22 11:49:28;;;;;;;6.55;5.20;;;;;;;;;;5112011;28;20050;-52
2022/07/22 11:51:55;;;;;;;8.18;5.18;;;;;;;;;;5112191;28;20176;-49
2022/07/22 11:54:22;;;;;;;7.15;5.80;;;;;;;;;;5112243;28;20092;-49
2022/07/22 11:56:50;;;;;;;8.10;6.45;;;;;;;;;;5112525;28;20085;-50
2022/07/22 11:59:23;;;;;;;7.40;5.30;;;;;;;;;;5112219;28;20100;-51
2022/07/22 12:01:52;;;;;;;9.48;6.35;;;;;;;;;;5112111;28;20040;-51
2022/07/22 12:04:24;;;;;;;7.15;6.03;;;;;;;;;;5112528;28;20067;-56
2022/07/22 12:06:54;;;;;;;5.88;5.18;;;;;;;;;;5112075;28;20047;-52
2022/07/22 12:09:42;;;;;;;7.63;6.03;;;;;;;;;;5112268;28;20061;-52
2022/07/22 12:12:10;;;;;;;6.85;5.75;;;;;;;;;;5111684;28;20543;-51
2022/07/22 12:14:45;;;;;;;7.68;6.43;;;;;;;;;;5111792;28;20035;-56
2022/07/22 12:17:15;;;;;;;9.30;5.60;;;;;;;;;;5111992;28;20094;-52
2022/07/22 12:19:42;;;;;;;6.75;5.30;;;;;;;;;;5111954;28;20044;-50
2022/07/22 12:22:15;;;;;;;6.45;5.63;;;;;;;;;;5112023;28;20040;-52
2022/07/22 12:24:46;;;;;;;5.82;5.18;;;;;;;;;;5111653;28;20455;-48
2022/07/22 12:27:15;;;;;;;10.30;5.70;;;;;;;;;;5111943;28;20042;-52
2022/07/22 12:29:47;;;;;;;6.25;5.50;;;;;;;;;;5111493;28;20555;-55
2022/07/22 12:32:24;;;;;;;9.18;5.13;;;;;;;;;;5111929;28;20071;-57
2022/07/22 12:34:57;;;;;;;8.38;5.32;;;;;;;;;;5111788;28;20036;-50
2022/07/22 12:37:48;;;;;;;7.40;5.30;;;;;;;;;;5112022;28;20031;-56
2022/07/22 12:40:21;;;;;;;6.65;5.50;;;;;;;;;;5115795;28;20044;-50
2022/07/22 12:43:09;;;;;;;9.50;5.53;;;;;;;;;;5115776;28;20079;-49
2022/07/22 12:45:39;;;;;;;7.03;5.72;;;;;;;;;;5115492;28;20404;-56
2022/07/22 12:48:08;;;;;;;6.43;5.15;;;;;;;;;;5115359;28;20390;-50
2022/07/22 12:50:41;;;;;;;10.27;6.10;;;;;;;;;;5115328;28;20047;-56
2022/07/22 12:53:11;;;;;;;6.18;5.50;;;;;;;;;;5115201;28;20387;-50
2022/07/22 12:55:57;;;;;;;10.55;6.10;;;;;;;;;;5115607;28;20040;-50
2022/07/22 12:58:36;;;;;;;11.85;5.93;;;;;;;;;;5115223;28;20036;-56
2022/07/22 13:01:04;;;;;;;8.05;6.15;;;;;;;;;;5115390;28;20145;-51
2022/07/22 13:03:32;;;;;;;7.15;6.18;;;;;;;;;;5114007;28;20051;-49
2022/07/22 13:06:02;;;;;;;11.50;6.13;;;;;;;;;;5115192;28;20036;-55
2022/07/22 13:08:33;;;;;;;7.82;6.10;;;;;;;;;;5114910;28;20040;-57
2022/07/22 13:11:13;;;;;;;7.28;5.57;;;;;;;;;;5115276;28;20096;-52
2022/07/22 13:13:42;;;;;;;8.07;6.03;;;;;;;;;;5115029;28;20058;-51
2022/07/22 13:16:11;;;;;;;10.07;6.30;;;;;;;;;;5115160;28;20123;-57
2022/07/22 13:18:38;;;;;;;9.82;5.78;;;;;;;;;;5114903;28;20036;-55
2022/07/22 13:21:06;;;;;;;7.88;6.10;;;;;;;;;;5114486;28;20039;-51
2022/07/22 13:23:33;;;;;;;9.30;6.18;;;;;;;;;;5114836;28;20567;-49
2022/07/22 13:26:01;;;;;;;7.95;5.57;;;;;;;;;;5114524;28;20040;-58
2022/07/22 13:28:28;;;;;;;6.55;5.63;;;;;;;;;;5114451;28;20035;-49
2022/07/22 13:30:55;;;;;;;7.53;6.00;;;;;;;;;;5101382;28;20050;-53
2022/07/22 13:33:23;;;;;;;9.43;5.90;;;;;;;;;;5094148;28;20052;-51
2022/07/22 13:35:51;;;;;;;7.20;6.18;;;;;;;;;;5094532;28;20175;-50
2022/07/22 13:38:18;;;;;;;9.82;6.30;;;;;;;;;;5094356;28;20051;-50
2022/07/22 13:40:54;;;;;;;10.60;6.03;;;;;;;;;;5094303;28;20509;-51
2022/07/22 13:43:23;;;;;;;8.05;6.55;;;;;;;;;;5094156;28;20040;-50
2022/07/22 13:45:52;;;;;;;7.38;6.47;;;;;;;;;;5094187;28;20556;-51
2022/07/22 13:48:20;;;;;;;6.70;5.97;;;;;;;;;;5094128;28;20119;-55
2022/07/22 13:50:48;;;;;;;9.38;7.15;;;;;;;;;;5094204;28;20052;-57
2022/07/22 13:53:15;;;;;;;9.38;6.78;;;;;;;;;;5093625;28;20059;-51
2022/07/22 13:55:43;;;;;;;7.97;5.80;;;;;;;;;;5093682;28;20491;-55
2022/07/22 13:58:10;;;;;;;7.10;6.15;;;;;;;;;;5093859;28;20036;-56
2022/07/22 14:00:40;;;;;;;9.20;6.35;;;;;;;;;;5093587;28;20399;-54
2022/07/22 14:03:07;;;;;;;6.93;5.80;;;;;;;;;;5093795;28;20080;-52
2022/07/22 14:05:34;;;;;;;7.40;6.32;;;;;;;;;;5093644;28;20036;-52
2022/07/22 14:08:02;;;;;;;7.28;6.43;;;;;;;;;;5093642;28;20058;-50
2022/07/22 14:10:29;;;;;;;9.02;6.20;;;;;;;;;;5093615;28;20062;-51
2022/07/22 14:12:56;;;;;;;8.77;6.07;;;;;;;;;;5093422;28;20513;-52
2022/07/22 14:15:24;;;;;;;6.93;5.63;;;;;;;;;;5093401;28;20044;-56
2022/07/22 14:17:51;;;;;;;7.78;6.18;;;;;;;;;;5093665;28;20094;-49
2022/07/22 14:20:22;;;;;;;9.43;6.40;;;;;;;;;;5093690;28;20111;-47
2022/07/22 14:22:50;;;;;;;8.32;6.30;;;;;;;;;;5093605;28;20040;-53
2022/07/22 14:25:19;;;;;;;8.35;6.60;;;;;;;;;;5097670;28;20050;-50
2022/07/22 14:27:46;;;;;;;8.57;6.47;;;;;;;;;;5096990;28;20565;-49
2022/07/22 14:30:13;;;;;;;9.13;5.80;;;;;;;;;;5099673;28;20046;-56
2022/07/22 14:32:40;;;;;;;6.82;6.03;;;;;;;;;;5113041;28;20119;-54
2022/07/22 14:35:08;;;;;;;7.53;5.90;;;;;;;;;;5113371;28;20036;-54
2022/07/22 14:37:35;;;;;;;8.82;6.05;;;;;;;;;;5095525;28;20065;-57
2022/07/22 14:40:03;;;;;;;6.47;5.88;;;;;;;;;;5113040;28;20089;-54
2022/07/22 14:42:31;;;;;;;8.25;5.50;;;;;;;;;;5113384;28;20044;-54
2022/07/22 14:44:58;;;;;;;20.52;13.20;;;;;;;;;;5113211;28;20044;-56
2022/07/22 14:47:26;;;;;;;8.90;5.47;;;;;;;;;;5112954;28;20035;-55
2022/07/22 14:49:53;;;;;;;7.28;5.50;;;;;;;;;;5113141;28;20075;-54
2022/07/22 14:52:21;;;;;;;6.50;5.55;;;;;;;;;;5113350;28;20066;-52
2022/07/22 14:54:48;;;;;;;8.52;5.57;;;;;;;;;;5113244;28;20047;-53
2022/07/22 14:57:16;;;;;;;10.48;6.00;;;;;;;;;;5113069;28;20039;-57
2022/07/22 14:59:43;;;;;;;8.38;5.43;;;;;;;;;;5113015;28;20035;-49
2022/07/22 15:02:10;;;;;;;7.72;5.65;;;;;;;;;;5112316;28;20111;-48
2022/07/22 15:04:37;;;;;;;6.18;5.47;;;;;;;;;;5112815;28;20109;-57